sensor_id;sensor_type;location;lat;lon;timestamp;pressure;altitude;pressure_sealevel;temperature;humidity
14885;BME280;7534;50.762;7.000;2023-09-19T00:00:46;87329.44;;;-143.16;73.69
14885;BME280;7534;50.762;7.000;2023-09-19T00:03:15;87281.00;;;-143.16;73.73
14885;BME280;7534;50.762;7.000;2023-09-19T00:05:41;87232.56;;;-143.16;73.88
14885;BME280;7534;50.762;7.000;2023-09-19T00:08:10;87301.19;;;-143.16;74.19
14885;BME280;7534;50.762;7.000;2023-09-19T00:10:36;87365.75;;;-143.16;73.87
14885;BME280;7534;50.762;7.000;2023-09-19T00:13:03;87315.31;;;-143.16;73.87
14885;BME280;7534;50.762;7.000;2023-09-19T00:15:42;87321.38;;;-143.16;73.39
14885;BME280;7534;50.762;7.000;2023-09-19T00:18:08;87343.56;;;-143.16;73.25
14885;BME280;7534;50.762;7.000;2023-09-19T00:20:38;87291.09;;;-143.16;73.44
14885;BME280;7534;50.762;7.000;2023-09-19T00:23:05;87307.25;;;-143.16;72.66
14885;BME280;7534;50.762;7.000;2023-09-19T00:25:37;87276.97;;;-143.16;73.21
14885;BME280;7534;50.762;7.000;2023-09-19T00:28:04;87238.63;;;-143.16;72.62
14885;BME280;7534;50.762;7.000;2023-09-19T00:30:31;87345.59;;;-143.16;72.46
14885;BME280;7534;50.762;7.000;2023-09-19T00:32:58;87287.06;;;-143.16;73.10
14885;BME280;7534;50.762;7.000;2023-09-19T00:35:24;87365.75;;;-143.16;72.07
14885;BME280;7534;50.762;7.000;2023-09-19T00:37:51;87339.53;;;-143.16;72.63
14885;BME280;7534;50.762;7.000;2023-09-19T00:40:17;87357.69;;;-143.16;72.74
14885;BME280;7534;50.762;7.000;2023-09-19T00:42:46;87331.47;;;-143.16;72.87
14885;BME280;7534;50.762;7.000;2023-09-19T00:45:14;87367.78;;;-143.16;72.34
14885;BME280;7534;50.762;7.000;2023-09-19T00:47:51;87289.06;;;-143.16;72.71
14885;BME280;7534;50.762;7.000;2023-09-19T00:50:24;87339.53;;;-143.16;72.11
14885;BME280;7534;50.762;7.000;2023-09-19T00:52:54;87359.72;;;-143.16;72.58
14885;BME280;7534;50.762;7.000;2023-09-19T00:55:25;87319.34;;;-143.16;72.62
14885;BME280;7534;50.762;7.000;2023-09-19T00:57:51;87329.44;;;-143.16;72.66
14885;BME280;7534;50.762;7.000;2023-09-19T01:00:17;87337.50;;;-143.16;72.97
14885;BME280;7534;50.762;7.000;2023-09-19T01:02:46;87387.97;;;-143.16;72.74
14885;BME280;7534;50.762;7.000;2023-09-19T01:05:13;87329.44;;;-143.16;72.59
14885;BME280;7534;50.762;7.000;2023-09-19T01:07:39;87333.47;;;-143.16;71.98
14885;BME280;7534;50.762;7.000;2023-09-19T01:10:08;87297.16;;;-143.16;71.60
14885;BME280;7534;50.762;7.000;2023-09-19T01:13:13;87283.03;;;-143.16;71.43
14885;BME280;7534;50.762;7.000;2023-09-19T01:16:28;87371.81;;;-143.16;68.52
14885;BME280;7534;50.762;7.000;2023-09-19T01:22:11;87236.59;;;-143.16;68.58
14885;BME280;7534;50.762;7.000;2023-09-19T01:30:58;87266.88;;;-143.16;66.67
14885;BME280;7534;50.762;7.000;2023-09-19T01:33:25;87236.59;;;-143.16;66.25
14885;BME280;7534;50.762;7.000;2023-09-19T01:35:59;87216.44;;;-143.16;65.87
14885;BME280;7534;50.762;7.000;2023-09-19T01:38:25;87147.81;;;-143.16;65.61
14885;BME280;7534;50.762;7.000;2023-09-19T01:41:11;87182.13;;;-143.16;64.72
14885;BME280;7534;50.762;7.000;2023-09-19T01:43:42;87155.88;;;-143.16;63.84
14885;BME280;7534;50.762;7.000;2023-09-19T01:46:28;87157.91;;;-143.16;63.98
14885;BME280;7534;50.762;7.000;2023-09-19T01:49:15;87242.66;;;-143.16;62.35
14885;BME280;7534;50.762;7.000;2023-09-19T01:51:53;87125.59;;;-143.16;61.54
14885;BME280;7534;50.762;7.000;2023-09-19T01:54:33;87105.44;;;-143.16;61.84
14885;BME280;7534;50.762;7.000;2023-09-19T01:57:16;87093.31;;;-143.16;62.05
14885;BME280;7534;50.762;7.000;2023-09-19T01:59:55;87149.81;;;-143.16;61.13
14885;BME280;7534;50.762;7.000;2023-09-19T02:02:24;87192.22;;;-143.16;59.14
14885;BME280;7534;50.762;7.000;2023-09-19T02:04:51;87234.59;;;-143.16;58.80
14885;BME280;7534;50.762;7.000;2023-09-19T02:07:17;87228.53;;;-143.16;58.29
14885;BME280;7534;50.762;7.000;2023-09-19T02:09:42;87178.09;;;-143.16;58.62
14885;BME280;7534;50.762;7.000;2023-09-19T02:12:11;87264.84;;;-143.16;58.88
14885;BME280;7534;50.762;7.000;2023-09-19T02:14:36;87254.78;;;-143.16;58.44
14885;BME280;7534;50.762;7.000;2023-09-19T02:17:03;87172.03;;;-143.16;58.56
14885;BME280;7534;50.762;7.000;2023-09-19T02:19:33;87224.50;;;-143.16;59.26
14885;BME280;7534;50.762;7.000;2023-09-19T02:22:00;87248.72;;;-143.16;59.22
14885;BME280;7534;50.762;7.000;2023-09-19T02:24:28;87216.44;;;-143.16;59.72
14885;BME280;7534;50.762;7.000;2023-09-19T02:26:54;87182.13;;;-143.16;58.93
14885;BME280;7534;50.762;7.000;2023-09-19T02:29:21;87226.50;;;-143.16;59.87
14885;BME280;7534;50.762;7.000;2023-09-19T02:31:48;87198.25;;;-143.16;59.44
14885;BME280;7534;50.762;7.000;2023-09-19T02:34:13;87240.63;;;-143.16;59.80
14885;BME280;7534;50.762;7.000;2023-09-19T02:36:42;87315.31;;;-143.16;60.31
14885;BME280;7534;50.762;7.000;2023-09-19T02:39:10;87313.28;;;-143.16;60.43
14885;BME280;7534;50.762;7.000;2023-09-19T02:41:36;87210.38;;;-143.16;60.39
14885;BME280;7534;50.762;7.000;2023-09-19T02:44:02;87240.63;;;-143.16;60.81
14885;BME280;7534;50.762;7.000;2023-09-19T02:46:28;87281.00;;;-143.16;61.23
14885;BME280;7534;50.762;7.000;2023-09-19T02:48:54;87295.13;;;-143.16;61.63
14885;BME280;7534;50.762;7.000;2023-09-19T02:51:20;87258.81;;;-143.16;61.34
14885;BME280;7534;50.762;7.000;2023-09-19T02:53:46;87281.00;;;-143.16;61.68
14885;BME280;7534;50.762;7.000;2023-09-19T02:56:13;87270.91;;;-143.16;62.09
14885;BME280;7534;50.762;7.000;2023-09-19T02:58:39;87317.31;;;-143.16;62.07
14885;BME280;7534;50.762;7.000;2023-09-19T03:01:11;87297.16;;;-143.16;62.02
14885;BME280;7534;50.762;7.000;2023-09-19T03:03:37;87281.00;;;-143.16;62.26
14885;BME280;7534;50.762;7.000;2023-09-19T03:06:05;87270.91;;;-143.16;62.77
14885;BME280;7534;50.762;7.000;2023-09-19T03:08:31;87315.31;;;-143.16;62.96
14885;BME280;7534;50.762;7.000;2023-09-19T03:11:03;87264.84;;;-143.16;63.29
14885;BME280;7534;50.762;7.000;2023-09-19T03:13:34;87317.31;;;-143.16;63.55
14885;BME280;7534;50.762;7.000;2023-09-19T03:16:01;87317.31;;;-143.16;63.57
14885;BME280;7534;50.762;7.000;2023-09-19T03:18:30;87329.44;;;-143.16;64.05
14885;BME280;7534;50.762;7.000;2023-09-19T03:20:57;87337.50;;;-143.16;63.98
14885;BME280;7534;50.762;7.000;2023-09-19T03:23:27;87377.88;;;-143.16;63.88
14885;BME280;7534;50.762;7.000;2023-09-19T03:25:56;87337.50;;;-143.16;63.96
14885;BME280;7534;50.762;7.000;2023-09-19T03:28:24;87394.03;;;-143.16;63.77
14885;BME280;7534;50.762;7.000;2023-09-19T03:31:05;87335.50;;;-143.16;63.55
14885;BME280;7534;50.762;7.000;2023-09-19T03:33:32;87361.72;;;-143.16;63.17
14885;BME280;7534;50.762;7.000;2023-09-19T03:35:59;87458.59;;;-143.16;62.50
14885;BME280;7534;50.762;7.000;2023-09-19T03:38:29;87343.56;;;-143.16;62.88
14885;BME280;7534;50.762;7.000;2023-09-19T03:40:55;87379.91;;;-143.16;62.08
14885;BME280;7534;50.762;7.000;2023-09-19T03:43:20;87377.88;;;-143.16;62.34
14885;BME280;7534;50.762;7.000;2023-09-19T03:45:46;87383.94;;;-143.16;61.91
14885;BME280;7534;50.762;7.000;2023-09-19T03:48:12;87406.13;;;-143.16;61.96
14885;BME280;7534;50.762;7.000;2023-09-19T03:50:39;87365.75;;;-143.16;61.54
14885;BME280;7534;50.762;7.000;2023-09-19T03:53:07;87389.97;;;-143.16;61.19
14885;BME280;7534;50.762;7.000;2023-09-19T03:55:36;87313.28;;;-143.16;60.97
14885;BME280;7534;50.762;7.000;2023-09-19T03:58:04;87345.59;;;-143.16;61.37
14885;BME280;7534;50.762;7.000;2023-09-19T04:00:30;87394.03;;;-143.16;61.15
14885;BME280;7534;50.762;7.000;2023-09-19T04:02:56;87353.66;;;-143.16;61.44
14885;BME280;7534;50.762;7.000;2023-09-19T04:05:23;87367.78;;;-143.16;61.52
14885;BME280;7534;50.762;7.000;2023-09-19T04:07:49;87357.69;;;-143.16;61.69
14885;BME280;7534;50.762;7.000;2023-09-19T04:10:16;87357.69;;;-143.16;61.69
14885;BME280;7534;50.762;7.000;2023-09-19T04:12:54;87456.59;;;-143.16;62.10
14885;BME280;7534;50.762;7.000;2023-09-19T04:15:21;87371.81;;;-143.16;62.59
14885;BME280;7534;50.762;7.000;2023-09-19T04:17:50;87389.97;;;-143.16;62.55
14885;BME280;7534;50.762;7.000;2023-09-19T04:20:20;87414.19;;;-143.16;63.02
14885;BME280;7534;50.762;7.000;2023-09-19T04:22:48;87345.59;;;-143.16;63.03
14885;BME280;7534;50.762;7.000;2023-09-19T04:25:14;87357.69;;;-143.16;63.29
14885;BME280;7534;50.762;7.000;2023-09-19T04:27:40;87385.94;;;-143.16;63.59
14885;BME280;7534;50.762;7.000;2023-09-19T04:30:08;87406.13;;;-143.16;63.41
14885;BME280;7534;50.762;7.000;2023-09-19T04:32:38;87440.44;;;-143.16;63.74
14885;BME280;7534;50.762;7.000;2023-09-19T04:35:09;87448.50;;;-143.16;63.81
14885;BME280;7534;50.762;7.000;2023-09-19T04:37:39;87442.47;;;-143.16;63.96
14885;BME280;7534;50.762;7.000;2023-09-19T04:40:08;87426.31;;;-143.16;64.38
14885;BME280;7534;50.762;7.000;2023-09-19T04:42:39;87436.41;;;-143.16;64.02
14885;BME280;7534;50.762;7.000;2023-09-19T04:45:06;87462.63;;;-143.16;64.34
14885;BME280;7534;50.762;7.000;2023-09-19T04:47:32;87531.25;;;-143.16;64.48
14885;BME280;7534;50.762;7.000;2023-09-19T04:49:58;87400.06;;;-143.16;64.58
14885;BME280;7534;50.762;7.000;2023-09-19T04:52:24;87488.88;;;-143.16;64.21
14885;BME280;7534;50.762;7.000;2023-09-19T04:54:50;87456.59;;;-143.16;64.53
14885;BME280;7534;50.762;7.000;2023-09-19T04:57:16;87468.69;;;-143.16;64.24
14885;BME280;7534;50.762;7.000;2023-09-19T04:59:42;87432.38;;;-143.16;64.05
14885;BME280;7534;50.762;7.000;2023-09-19T05:02:09;87406.13;;;-143.16;63.90
14885;BME280;7534;50.762;7.000;2023-09-19T05:04:37;87432.38;;;-143.16;63.85
14885;BME280;7534;50.762;7.000;2023-09-19T05:07:02;87468.69;;;-143.16;63.87
14885;BME280;7534;50.762;7.000;2023-09-19T05:09:29;87480.81;;;-143.16;63.79
14885;BME280;7534;50.762;7.000;2023-09-19T05:11:55;87505.03;;;-143.16;63.44
14885;BME280;7534;50.762;7.000;2023-09-19T05:14:23;87452.56;;;-143.16;63.32
14885;BME280;7534;50.762;7.000;2023-09-19T05:16:50;87478.78;;;-143.16;63.26
14885;BME280;7534;50.762;7.000;2023-09-19T05:19:16;87389.97;;;-143.16;63.76
14885;BME280;7534;50.762;7.000;2023-09-19T05:21:44;87505.03;;;-143.16;63.71
14885;BME280;7534;50.762;7.000;2023-09-19T05:24:10;87507.03;;;-143.16;63.53
14885;BME280;7534;50.762;7.000;2023-09-19T05:26:36;87484.84;;;-143.16;63.58
14885;BME280;7534;50.762;7.000;2023-09-19T05:29:02;87474.75;;;-143.16;63.31
14885;BME280;7534;50.762;7.000;2023-09-19T05:31:29;87450.53;;;-143.16;63.82
14885;BME280;7534;50.762;7.000;2023-09-19T05:33:55;87434.38;;;-143.16;63.62
14885;BME280;7534;50.762;7.000;2023-09-19T05:36:20;87470.72;;;-143.16;63.78
14885;BME280;7534;50.762;7.000;2023-09-19T05:38:46;87482.81;;;-143.16;63.52
14885;BME280;7534;50.762;7.000;2023-09-19T05:41:15;87571.63;;;-143.16;63.40
14885;BME280;7534;50.762;7.000;2023-09-19T05:43:41;87440.44;;;-143.16;63.32
14885;BME280;7534;50.762;7.000;2023-09-19T05:46:07;87470.72;;;-143.16;63.48
14885;BME280;7534;50.762;7.000;2023-09-19T05:48:34;87474.75;;;-143.16;63.91
14885;BME280;7534;50.762;7.000;2023-09-19T05:51:00;87541.34;;;-143.16;63.90
14885;BME280;7534;50.762;7.000;2023-09-19T05:53:27;87519.16;;;-143.16;64.07
14885;BME280;7534;50.762;7.000;2023-09-19T05:55:54;87620.06;;;-143.16;64.24
14885;BME280;7534;50.762;7.000;2023-09-19T05:58:21;87464.66;;;-143.16;64.21
14885;BME280;7534;50.762;7.000;2023-09-19T06:00:46;87418.25;;;-143.16;63.90
14885;BME280;7534;50.762;7.000;2023-09-19T06:03:14;87460.63;;;-143.16;63.80
14885;BME280;7534;50.762;7.000;2023-09-19T06:05:40;87482.81;;;-143.16;63.50
14885;BME280;7534;50.762;7.000;2023-09-19T06:08:07;87428.34;;;-143.16;63.25
14885;BME280;7534;50.762;7.000;2023-09-19T06:10:36;87438.41;;;-143.16;63.08
14885;BME280;7534;50.762;7.000;2023-09-19T06:13:05;87381.91;;;-143.16;62.81
14885;BME280;7534;50.762;7.000;2023-09-19T06:15:31;87442.47;;;-143.16;62.79
14885;BME280;7534;50.762;7.000;2023-09-19T06:17:59;87454.56;;;-143.16;62.28
14885;BME280;7534;50.762;7.000;2023-09-19T06:20:28;87436.41;;;-143.16;62.52
14885;BME280;7534;50.762;7.000;2023-09-19T06:22:54;87331.47;;;-143.16;61.57
14885;BME280;7534;50.762;7.000;2023-09-19T06:25:21;87398.06;;;-143.16;60.22
14885;BME280;7534;50.762;7.000;2023-09-19T06:27:51;87349.63;;;-143.16;59.67
14885;BME280;7534;50.762;7.000;2023-09-19T06:30:24;87295.13;;;-143.16;58.73
14885;BME280;7534;50.762;7.000;2023-09-19T06:32:57;87299.16;;;-143.16;58.14
14885;BME280;7534;50.762;7.000;2023-09-19T06:35:23;87264.84;;;-143.16;57.41
14885;BME280;7534;50.762;7.000;2023-09-19T06:37:49;87281.00;;;-143.16;57.07
14885;BME280;7534;50.762;7.000;2023-09-19T06:40:16;87228.53;;;-143.16;56.77
14885;BME280;7534;50.762;7.000;2023-09-19T06:42:51;87180.09;;;-143.16;56.14
14885;BME280;7534;50.762;7.000;2023-09-19T06:45:18;87133.69;;;-143.16;55.43
14885;BME280;7534;50.762;7.000;2023-09-19T06:47:49;87139.75;;;-143.16;54.73
14885;BME280;7534;50.762;7.000;2023-09-19T06:50:20;87131.66;;;-143.16;54.21
14885;BME280;7534;50.762;7.000;2023-09-19T06:52:53;87059.00;;;-143.16;53.61
14885;BME280;7534;50.762;7.000;2023-09-19T06:55:21;87042.88;;;-143.16;52.74
14885;BME280;7534;50.762;7.000;2023-09-19T06:57:50;87057.00;;;-143.16;52.13
14885;BME280;7534;50.762;7.000;2023-09-19T07:00:17;86950.03;;;-143.16;51.62
14885;BME280;7534;50.762;7.000;2023-09-19T07:03:07;86881.44;;;-143.16;51.04
14885;BME280;7534;50.762;7.000;2023-09-19T07:05:34;86919.78;;;-143.16;50.10
14885;BME280;7534;50.762;7.000;2023-09-19T07:08:06;86877.41;;;-143.16;49.06
14885;BME280;7534;50.762;7.000;2023-09-19T07:10:33;86770.44;;;-143.16;48.40
14885;BME280;7534;50.762;7.000;2023-09-19T07:13:04;86703.88;;;-143.16;47.09
14885;BME280;7534;50.762;7.000;2023-09-19T07:15:34;86748.25;;;-143.16;46.13
14885;BME280;7534;50.762;7.000;2023-09-19T07:18:26;86598.94;;;-143.16;45.00
14885;BME280;7534;50.762;7.000;2023-09-19T07:20:58;86598.94;;;-143.16;44.76
14885;BME280;7534;50.762;7.000;2023-09-19T07:23:31;86556.56;;;-143.16;44.94
14885;BME280;7534;50.762;7.000;2023-09-19T07:26:01;86592.88;;;-143.16;44.54
14885;BME280;7534;50.762;7.000;2023-09-19T07:28:27;86524.28;;;-143.16;43.75
14885;BME280;7534;50.762;7.000;2023-09-19T07:30:53;86494.03;;;-143.16;42.69
14885;BME280;7534;50.762;7.000;2023-09-19T07:33:19;86374.97;;;-143.16;41.18
14885;BME280;7534;50.762;7.000;2023-09-19T07:35:46;86372.97;;;-143.16;41.25
14885;BME280;7534;50.762;7.000;2023-09-19T07:38:12;86264.00;;;-143.16;39.90
14885;BME280;7534;50.762;7.000;2023-09-19T07:40:39;86015.88;;;-143.16;38.39
14885;BME280;7534;50.762;7.000;2023-09-19T07:43:05;85826.22;;;-143.16;36.69
14885;BME280;7534;50.762;7.000;2023-09-19T07:45:32;85793.97;;;-143.16;36.32
14885;BME280;7534;50.762;7.000;2023-09-19T07:47:58;85939.19;;;-143.16;35.87
14885;BME280;7534;50.762;7.000;2023-09-19T07:50:33;85814.13;;;-143.16;36.26
14885;BME280;7534;50.762;7.000;2023-09-19T07:53:02;85697.13;;;-143.16;35.58
14885;BME280;7534;50.762;7.000;2023-09-19T07:55:30;85519.63;;;-143.16;34.25
14885;BME280;7534;50.762;7.000;2023-09-19T07:57:56;85509.53;;;-143.16;33.59
14885;BME280;7534;50.762;7.000;2023-09-19T08:00:22;85410.69;;;-143.16;33.19
14885;BME280;7534;50.762;7.000;2023-09-19T08:02:48;85432.88;;;-143.16;32.66
14885;BME280;7534;50.762;7.000;2023-09-19T08:05:14;85400.63;;;-143.16;32.77
14885;BME280;7534;50.762;7.000;2023-09-19T08:07:45;85376.41;;;-143.16;31.54
14885;BME280;7534;50.762;7.000;2023-09-19T08:10:15;85265.47;;;-143.16;31.53
14885;BME280;7534;50.762;7.000;2023-09-19T08:12:46;85370.34;;;-143.16;31.41
14885;BME280;7534;50.762;7.000;2023-09-19T08:15:19;85352.22;;;-143.16;31.96
14885;BME280;7534;50.762;7.000;2023-09-19T08:17:46;85408.69;;;-143.16;32.04
14885;BME280;7534;50.762;7.000;2023-09-19T08:20:12;85440.94;;;-143.16;32.35
14885;BME280;7534;50.762;7.000;2023-09-19T08:22:50;85640.66;;;-143.16;33.02
14885;BME280;7534;50.762;7.000;2023-09-19T08:25:23;85795.97;;;-143.16;33.53
14885;BME280;7534;50.762;7.000;2023-09-19T08:27:51;85798.00;;;-143.16;33.70
14885;BME280;7534;50.762;7.000;2023-09-19T08:30:19;85785.88;;;-143.16;34.05
14885;BME280;7534;50.762;7.000;2023-09-19T08:32:59;85707.22;;;-143.16;34.06
14885;BME280;7534;50.762;7.000;2023-09-19T08:35:24;85779.84;;;-143.16;34.40
14885;BME280;7534;50.762;7.000;2023-09-19T08:37:50;85840.34;;;-143.16;33.88
14885;BME280;7534;50.762;7.000;2023-09-19T08:40:17;85814.13;;;-143.16;34.11
14885;BME280;7534;50.762;7.000;2023-09-19T08:42:56;85977.53;;;-143.16;34.14
14885;BME280;7534;50.762;7.000;2023-09-19T08:45:24;85727.38;;;-143.16;33.79
14885;BME280;7534;50.762;7.000;2023-09-19T08:48:24;85670.91;;;-143.16;33.42
14885;BME280;7534;50.762;7.000;2023-09-19T08:51:18;85697.13;;;-143.16;33.08
14885;BME280;7534;50.762;7.000;2023-09-19T08:54:08;85636.63;;;-143.16;33.03
14885;BME280;7534;50.762;7.000;2023-09-19T08:56:38;85662.84;;;-143.16;32.54
14885;BME280;7534;50.762;7.000;2023-09-19T08:59:06;85606.34;;;-143.16;32.39
14885;BME280;7534;50.762;7.000;2023-09-19T09:01:38;85485.34;;;-143.16;31.76
14885;BME280;7534;50.762;7.000;2023-09-19T09:04:09;85340.09;;;-143.16;31.43
14885;BME280;7534;50.762;7.000;2023-09-19T09:06:36;85420.78;;;-143.16;31.08
14885;BME280;7534;50.762;7.000;2023-09-19T09:09:03;85372.38;;;-143.16;31.48
14885;BME280;7534;50.762;7.000;2023-09-19T09:11:29;85202.94;;;-143.16;30.84
14885;BME280;7534;50.762;7.000;2023-09-19T09:13:58;85219.09;;;-143.16;29.85
14885;BME280;7534;50.762;7.000;2023-09-19T09:16:24;85384.47;;;-143.16;30.87
14885;BME280;7534;50.762;7.000;2023-09-19T09:18:51;85211.03;;;-143.16;30.71
14885;BME280;7534;50.762;7.000;2023-09-19T09:21:24;85077.91;;;-143.16;30.08
14885;BME280;7534;50.762;7.000;2023-09-19T09:23:50;84908.50;;;-143.16;29.43
14885;BME280;7534;50.762;7.000;2023-09-19T09:29:05;85110.16;;;-143.16;30.07
14885;BME280;7534;50.762;7.000;2023-09-19T09:31:32;85152.53;;;-143.16;30.08
14885;BME280;7534;50.762;7.000;2023-09-19T09:33:57;85311.88;;;-143.16;30.35
14885;BME280;7534;50.762;7.000;2023-09-19T09:36:38;85376.41;;;-143.16;31.23
14885;BME280;7534;50.762;7.000;2023-09-19T09:39:07;85370.34;;;-143.16;31.46
14885;BME280;7534;50.762;7.000;2023-09-19T09:41:42;85487.34;;;-143.16;31.30
14885;BME280;7534;50.762;7.000;2023-09-19T09:44:17;85596.28;;;-143.16;31.73
14885;BME280;7534;50.762;7.000;2023-09-19T09:46:47;85578.13;;;-143.16;31.88
14885;BME280;7534;50.762;7.000;2023-09-19T09:49:27;85695.13;;;-143.16;32.63
14885;BME280;7534;50.762;7.000;2023-09-19T09:52:04;85689.06;;;-143.16;33.19
14885;BME280;7534;50.762;7.000;2023-09-19T09:55:04;85703.19;;;-143.16;33.49
14885;BME280;7534;50.762;7.000;2023-09-19T09:57:34;85719.31;;;-143.16;32.72
14885;BME280;7534;50.762;7.000;2023-09-19T10:00:02;85580.13;;;-143.16;32.75
14885;BME280;7534;50.762;7.000;2023-09-19T10:02:37;85600.31;;;-143.16;31.50
14885;BME280;7534;50.762;7.000;2023-09-19T10:05:15;85731.41;;;-143.16;32.90
14885;BME280;7534;50.762;7.000;2023-09-19T10:07:55;85830.28;;;-143.16;32.91
14885;BME280;7534;50.762;7.000;2023-09-19T10:10:39;85828.25;;;-143.16;33.32
14885;BME280;7534;50.762;7.000;2023-09-19T10:13:09;85818.16;;;-143.16;33.00
14885;BME280;7534;50.762;7.000;2023-09-19T10:15:38;85755.63;;;-143.16;33.17
14885;BME280;7534;50.762;7.000;2023-09-19T10:18:07;85872.63;;;-143.16;33.43
14885;BME280;7534;50.762;7.000;2023-09-19T10:20:45;85892.81;;;-143.16;33.76
14885;BME280;7534;50.762;7.000;2023-09-19T10:23:12;85816.16;;;-143.16;33.71
14885;BME280;7534;50.762;7.000;2023-09-19T10:25:43;85894.81;;;-143.16;33.82
14885;BME280;7534;50.762;7.000;2023-09-19T10:28:14;85985.59;;;-143.16;33.87
14885;BME280;7534;50.762;7.000;2023-09-19T10:30:46;85971.47;;;-143.16;34.00
14885;BME280;7534;50.762;7.000;2023-09-19T10:33:21;86046.13;;;-143.16;34.56
14885;BME280;7534;50.762;7.000;2023-09-19T10:35:49;86106.66;;;-143.16;34.67
14885;BME280;7534;50.762;7.000;2023-09-19T10:38:26;86046.13;;;-143.16;34.78
14885;BME280;7534;50.762;7.000;2023-09-19T10:40:54;85969.47;;;-143.16;34.57
14885;BME280;7534;50.762;7.000;2023-09-19T10:43:26;85941.22;;;-143.16;34.21
14885;BME280;7534;50.762;7.000;2023-09-19T10:46:01;86040.06;;;-143.16;34.40
14885;BME280;7534;50.762;7.000;2023-09-19T10:48:29;85989.63;;;-143.16;34.81
14885;BME280;7534;50.762;7.000;2023-09-19T10:51:08;86019.91;;;-143.16;34.08
14885;BME280;7534;50.762;7.000;2023-09-19T10:53:54;86070.34;;;-143.16;34.07
14885;BME280;7534;50.762;7.000;2023-09-19T10:56:37;86009.81;;;-143.16;33.88
14885;BME280;7534;50.762;7.000;2023-09-19T10:59:12;85971.47;;;-143.16;33.86
14885;BME280;7534;50.762;7.000;2023-09-19T11:04:36;85917.00;;;-143.16;33.88
14885;BME280;7534;50.762;7.000;2023-09-19T11:07:14;85919.03;;;-143.16;33.53
14885;BME280;7534;50.762;7.000;2023-09-19T11:09:55;85937.19;;;-143.16;33.16
14885;BME280;7534;50.762;7.000;2023-09-19T11:15:01;86040.06;;;-143.16;33.72
14885;BME280;7534;50.762;7.000;2023-09-19T11:17:40;85937.19;;;-143.16;33.91
14885;BME280;7534;50.762;7.000;2023-09-19T11:30:32;86030.00;;;-143.16;33.13
14885;BME280;7534;50.762;7.000;2023-09-19T11:33:23;85955.34;;;-143.16;33.34
14885;BME280;7534;50.762;7.000;2023-09-19T11:36:14;85995.69;;;-143.16;33.04
14885;BME280;7534;50.762;7.000;2023-09-19T11:43:48;85957.34;;;-143.16;32.59
14885;BME280;7534;50.762;7.000;2023-09-19T11:46:17;85945.25;;;-143.16;32.74
14885;BME280;7534;50.762;7.000;2023-09-19T11:48:49;85902.88;;;-143.16;32.46
14885;BME280;7534;50.762;7.000;2023-09-19T11:51:20;85953.31;;;-143.16;32.48
14885;BME280;7534;50.762;7.000;2023-09-19T11:53:53;85929.13;;;-143.16;31.84
14885;BME280;7534;50.762;7.000;2023-09-19T11:56:22;85858.50;;;-143.16;32.39
14885;BME280;7534;50.762;7.000;2023-09-19T11:58:52;85921.03;;;-143.16;32.55
14885;BME280;7534;50.762;7.000;2023-09-19T12:01:33;86013.84;;;-143.16;32.62
14885;BME280;7534;50.762;7.000;2023-09-19T12:04:02;85981.56;;;-143.16;33.02
14885;BME280;7534;50.762;7.000;2023-09-19T12:06:30;85989.63;;;-143.16;32.91
14885;BME280;7534;50.762;7.000;2023-09-19T12:08:58;85985.59;;;-143.16;33.00
14885;BME280;7534;50.762;7.000;2023-09-19T12:11:31;85985.59;;;-143.16;33.73
14885;BME280;7534;50.762;7.000;2023-09-19T12:14:02;86060.25;;;-143.16;32.84
14885;BME280;7534;50.762;7.000;2023-09-19T12:16:29;86038.06;;;-143.16;33.04
14885;BME280;7534;50.762;7.000;2023-09-19T12:18:56;86094.53;;;-143.16;33.24
14885;BME280;7534;50.762;7.000;2023-09-19T12:21:30;86102.63;;;-143.16;33.39
14885;BME280;7534;50.762;7.000;2023-09-19T12:24:06;86070.34;;;-143.16;33.73
14885;BME280;7534;50.762;7.000;2023-09-19T12:26:43;86009.81;;;-143.16;33.09
14885;BME280;7534;50.762;7.000;2023-09-19T12:29:18;86068.31;;;-143.16;32.65
14885;BME280;7534;50.762;7.000;2023-09-19T12:31:56;86080.41;;;-143.16;33.22
14885;BME280;7534;50.762;7.000;2023-09-19T12:34:31;86003.75;;;-143.16;33.99
14885;BME280;7534;50.762;7.000;2023-09-19T12:39:48;86046.13;;;-143.16;33.76
14885;BME280;7534;50.762;7.000;2023-09-19T12:42:17;86157.09;;;-143.16;33.87
14885;BME280;7534;50.762;7.000;2023-09-19T12:44:46;86060.25;;;-143.16;33.95
14885;BME280;7534;50.762;7.000;2023-09-19T12:47:17;86086.47;;;-143.16;34.10
14885;BME280;7534;50.762;7.000;2023-09-19T12:52:48;85945.25;;;-143.16;33.64
14885;BME280;7534;50.762;7.000;2023-09-19T12:55:40;85953.31;;;-143.16;33.73
14885;BME280;7534;50.762;7.000;2023-09-19T12:58:14;85915.00;;;-143.16;33.03
14885;BME280;7534;50.762;7.000;2023-09-19T13:00:45;85908.94;;;-143.16;33.14
14885;BME280;7534;50.762;7.000;2023-09-19T13:06:08;85884.72;;;-143.16;32.10
14885;BME280;7534;50.762;7.000;2023-09-19T13:08:38;85864.56;;;-143.16;32.81
14885;BME280;7534;50.762;7.000;2023-09-19T13:11:14;85852.47;;;-143.16;32.19
14885;BME280;7534;50.762;7.000;2023-09-19T13:16:15;85900.88;;;-143.16;32.56
14885;BME280;7534;50.762;7.000;2023-09-19T13:18:50;85957.34;;;-143.16;32.72
14885;BME280;7534;50.762;7.000;2023-09-19T13:21:30;85896.84;;;-143.16;32.86
14885;BME280;7534;50.762;7.000;2023-09-19T13:24:20;85917.00;;;-143.16;33.26
14885;BME280;7534;50.762;7.000;2023-09-19T13:26:46;85917.00;;;-143.16;33.03
14885;BME280;7534;50.762;7.000;2023-09-19T13:29:12;85945.25;;;-143.16;33.04
14885;BME280;7534;50.762;7.000;2023-09-19T13:31:39;85989.63;;;-143.16;33.33
14885;BME280;7534;50.762;7.000;2023-09-19T13:34:07;85933.16;;;-143.16;32.96
14885;BME280;7534;50.762;7.000;2023-09-19T13:36:34;86003.75;;;-143.16;33.13
14885;BME280;7534;50.762;7.000;2023-09-19T13:38:59;85943.25;;;-143.16;32.99
14885;BME280;7534;50.762;7.000;2023-09-19T13:41:26;85975.53;;;-143.16;32.99
14885;BME280;7534;50.762;7.000;2023-09-19T13:43:52;85818.16;;;-143.16;32.88
14885;BME280;7534;50.762;7.000;2023-09-19T13:46:18;85826.22;;;-143.16;31.96
14885;BME280;7534;50.762;7.000;2023-09-19T13:48:51;85868.59;;;-143.16;32.18
14885;BME280;7534;50.762;7.000;2023-09-19T13:51:20;85802.03;;;-143.16;32.51